Time;durP1;ratioP1;P1;durP2;ratioP2;P2;SDS_P1;SDS_P2;PMS_P1;PMS_P2;Temp;Humidity;BMP_temperature;BMP_pressure;BME280_temperature;BME280_humidity;BME280_pressure;Samples;Min_cycle;Max_cycle;Signal;HPM_P1;HPM_P2
2021/03/25 00:01:21;;;;;;;35.58;32.50;;;5.40;83.10;;;;;;5094279;28;20709;-79
2021/03/25 00:03:49;;;;;;;35.80;32.72;;;5.50;82.90;;;;;;5094479;28;20198;-76
2021/03/25 00:06:17;;;;;;;35.42;32.50;;;5.50;83.60;;;;;;5094360;28;20202;-76
2021/03/25 00:08:43;;;;;;;35.15;31.95;;;5.50;82.60;;;;;;5094349;28;20205;-76
2021/03/25 00:11:10;;;;;;;33.35;30.65;;;5.40;85.20;;;;;;5094482;28;20192;-76
2021/03/25 00:13:36;;;;;;;31.85;29.10;;;5.40;83.80;;;;;;5094494;28;20201;-76
2021/03/25 00:16:04;;;;;;;32.67;29.92;;;5.40;86.10;;;;;;5094131;28;20595;-76
2021/03/25 00:18:30;;;;;;;33.20;30.15;;;5.30;84.90;;;;;;5094276;28;20256;-76
2021/03/25 00:20:56;;;;;;;35.10;31.88;;;5.30;83.70;;;;;;5094562;28;20215;-76
2021/03/25 00:23:24;;;;;;;34.85;31.88;;;5.20;83.10;;;;;;5094533;28;20247;-77
2021/03/25 00:25:50;;;;;;;32.20;29.52;;;5.30;82.80;;;;;;5094518;28;20313;-77
2021/03/25 00:28:18;;;;;;;32.92;30.23;;;5.20;82.80;;;;;;5094364;28;20223;-76
2021/03/25 00:30:45;;;;;;;34.35;31.33;;;5.20;87.20;;;;;;5093804;28;20215;-77
2021/03/25 00:33:14;;;;;;;35.63;29.95;;;5.20;88.80;;;;;;5094084;28;20191;-76
2021/03/25 00:35:42;;;;;;;32.00;29.33;;;5.20;87.10;;;;;;5092961;28;20203;-76
2021/03/25 00:38:09;;;;;;;32.90;30.00;;;5.20;86.60;;;;;;5093853;28;20222;-76
2021/03/25 00:40:36;;;;;;;33.55;30.55;;;5.10;85.30;;;;;;5093743;28;20215;-76
2021/03/25 00:43:04;;;;;;;31.58;28.77;;;5.10;84.70;;;;;;5093641;28;20227;-76
2021/03/25 00:45:34;;;;;;;32.78;29.73;;;5.10;84.10;;;;;;5093636;28;20201;-76
2021/03/25 00:48:01;;;;;;;33.03;30.20;;;5.00;83.70;;;;;;5093980;28;20195;-77
2021/03/25 00:50:30;;;;;;;31.67;28.98;;;5.00;83.40;;;;;;5093656;28;20215;-76
2021/03/25 00:52:57;;;;;;;32.63;30.02;;;5.00;83.10;;;;;;5093633;28;20194;-76
2021/03/25 00:55:24;;;;;;;31.42;28.92;;;5.00;82.80;;;;;;5093529;28;20210;-77
2021/03/25 00:57:52;;;;;;;34.22;30.85;;;5.00;82.60;;;;;;5093040;28;20202;-76
2021/03/25 01:00:22;;;;;;;30.17;27.67;;;4.90;86.00;;;;;;5093377;28;20234;-77
2021/03/25 01:02:48;;;;;;;29.45;27.25;;;4.80;87.90;;;;;;5093363;28;20200;-76
2021/03/25 01:05:15;;;;;;;30.58;28.05;;;4.80;89.40;;;;;;5093756;28;20293;-76
2021/03/25 01:07:42;;;;;;;32.10;29.20;;;4.80;86.80;;;;;;5093113;28;20195;-76
2021/03/25 01:10:15;;;;;;;30.92;27.92;;;4.70;85.80;;;;;;5093324;28;20215;-76
2021/03/25 01:12:42;;;;;;;31.50;28.90;;;4.60;84.90;;;;;;5093291;28;20248;-76
2021/03/25 01:15:11;;;;;;;32.65;29.95;;;4.60;84.40;;;;;;5093282;28;20195;-76
2021/03/25 01:17:41;;;;;;;31.90;29.20;;;4.60;84.10;;;;;;5093233;28;20203;-76
2021/03/25 01:20:14;;;;;;;32.97;29.92;;;4.60;85.10;;;;;;5093095;28;20237;-76
2021/03/25 01:22:40;;;;;;;31.77;29.05;;;4.60;84.40;;;;;;5093035;28;20668;-76
2021/03/25 01:25:08;;;;;;;32.67;29.92;;;4.50;85.10;;;;;;5093069;28;20209;-76
2021/03/25 01:27:34;;;;;;;98.82;34.40;;;4.50;84.70;;;;;;5092955;28;20199;-76
2021/03/25 01:30:01;;;;;;;31.98;28.98;;;4.40;86.90;;;;;;5092906;28;20221;-76
2021/03/25 01:32:29;;;;;;;31.85;29.00;;;4.50;88.10;;;;;;5093086;28;20199;-76
2021/03/25 01:34:55;;;;;;;31.20;28.35;;;4.40;87.20;;;;;;5093030;28;20206;-76
2021/03/25 01:37:21;;;;;;;31.52;28.85;;;4.50;86.00;;;;;;5092714;28;20195;-76
2021/03/25 01:39:50;;;;;;;31.52;28.92;;;4.40;85.50;;;;;;5092717;28;20231;-76
2021/03/25 01:42:25;;;;;;;31.00;28.50;;;4.40;85.40;;;;;;5092854;28;20203;-76
2021/03/25 01:44:52;;;;;;;31.67;29.27;;;4.30;85.20;;;;;;5092762;28;20199;-77
2021/03/25 01:47:19;;;;;;;33.70;30.98;;;4.30;85.20;;;;;;5092361;28;20202;-76
2021/03/25 01:49:46;;;;;;;32.17;29.40;;;4.40;84.80;;;;;;5092634;28;20692;-76
2021/03/25 01:52:47;;;;;;;33.42;30.42;;;4.30;84.70;;;;;;5092701;28;20668;-76
2021/03/25 01:55:31;;;;;;;33.10;30.17;;;4.30;84.70;;;;;;5077110;28;20199;-76
2021/03/25 01:58:32;;;;;;;32.95;30.13;;;4.30;85.00;;;;;;5092439;28;20260;-76
2021/03/25 02:01:05;;;;;;;32.50;29.70;;;4.30;84.90;;;;;;5092426;28;20603;-77
2021/03/25 02:04:03;;;;;;;32.25;29.15;;;4.20;85.40;;;;;;5092776;28;20211;-76
2021/03/25 02:06:37;;;;;;;30.23;27.73;;;4.10;86.00;;;;;;5087265;28;20256;-76
2021/03/25 02:09:13;;;;;;;31.00;28.20;;;4.20;89.10;;;;;;5092445;28;20218;-76
2021/03/25 02:11:44;;;;;;;31.65;28.83;;;4.30;90.20;;;;;;5092665;28;20605;-76
2021/03/25 02:14:17;;;;;;;30.40;27.85;;;4.20;92.50;;;;;;5092831;28;20199;-76
2021/03/25 02:16:50;;;;;;;31.08;28.48;;;4.20;90.10;;;;;;5092547;28;20195;-78
2021/03/25 02:19:34;;;;;;;32.65;29.48;;;4.30;91.40;;;;;;5092482;28;20214;-77
2021/03/25 02:22:26;;;;;;;34.22;30.95;;;4.30;89.30;;;;;;5092540;28;20657;-77
2021/03/25 02:24:57;;;;;;;31.52;28.88;;;4.30;88.30;;;;;;5092453;28;20199;-77
2021/03/25 02:27:36;;;;;;;30.33;27.52;;;4.40;87.60;;;;;;5092219;28;20195;-76
2021/03/25 02:30:06;;;;;;;32.15;29.30;;;4.50;87.00;;;;;;5092400;28;20681;-76
2021/03/25 02:32:37;;;;;;;30.48;28.00;;;4.60;86.60;;;;;;5092550;28;20199;-76
2021/03/25 02:35:10;;;;;;;31.00;27.98;;;4.60;88.30;;;;;;5092286;28;20286;-76
2021/03/25 02:37:38;;;;;;;31.00;28.33;;;4.70;87.80;;;;;;5092163;28;20199;-76
2021/03/25 02:40:10;;;;;;;30.17;27.67;;;4.60;86.90;;;;;;5092080;28;20223;-76
2021/03/25 02:42:43;;;;;;;29.35;26.95;;;4.60;90.70;;;;;;5092305;28;20191;-76
2021/03/25 02:45:15;;;;;;;29.50;27.20;;;4.70;88.40;;;;;;5092264;28;20211;-77
2021/03/25 02:47:46;;;;;;;31.02;28.33;;;4.60;88.10;;;;;;5092239;28;20200;-77
2021/03/25 02:50:18;;;;;;;29.27;26.98;;;4.70;87.30;;;;;;5092144;28;20218;-76
2021/03/25 02:52:48;;;;;;;29.83;27.33;;;4.70;86.30;;;;;;5092112;28;20552;-76
2021/03/25 02:55:17;;;;;;;27.77;25.58;;;4.70;85.80;;;;;;5092486;28;20224;-76
2021/03/25 02:57:54;;;;;;;30.17;27.70;;;4.70;86.80;;;;;;5091662;28;20195;-76
2021/03/25 03:00:27;;;;;;;29.17;26.67;;;4.80;86.80;;;;;;5094466;28;20219;-76
2021/03/25 03:03:01;;;;;;;29.23;26.60;;;4.90;85.90;;;;;;5095647;28;20596;-77
2021/03/25 03:05:29;;;;;;;31.70;26.92;;;5.00;86.00;;;;;;5095723;28;20191;-79
2021/03/25 03:08:01;;;;;;;29.23;26.83;;;4.90;87.10;;;;;;5095887;28;20247;-76
2021/03/25 03:10:35;;;;;;;30.50;27.73;;;4.90;87.80;;;;;;5095839;28;20211;-77
2021/03/25 03:13:03;;;;;;;31.20;28.90;;;5.00;87.10;;;;;;5095558;28;20218;-76
2021/03/25 03:15:37;;;;;;;31.80;29.10;;;5.00;85.60;;;;;;5095369;28;20195;-77
2021/03/25 03:18:09;;;;;;;30.13;27.60;;;5.00;85.30;;;;;;5095610;28;20199;-76
2021/03/25 03:20:41;;;;;;;29.35;27.20;;;5.00;84.90;;;;;;5095428;28;20222;-76
2021/03/25 03:23:08;;;;;;;29.92;26.90;;;4.90;85.50;;;;;;5095388;28;20203;-76
2021/03/25 03:25:34;;;;;;;31.55;28.90;;;5.00;84.80;;;;;;5095101;28;20203;-77
2021/03/25 03:28:06;;;;;;;30.25;27.75;;;5.00;84.70;;;;;;5095230;28;20195;-77
2021/03/25 03:30:34;;;;;;;29.25;26.65;;;5.00;85.60;;;;;;5095287;28;20298;-76
2021/03/25 03:33:06;;;;;;;30.05;27.73;;;5.00;86.00;;;;;;5095350;28;20282;-76
2021/03/25 03:35:38;;;;;;;31.27;28.63;;;5.00;86.10;;;;;;5094951;28;20204;-76
2021/03/25 03:38:08;;;;;;;27.10;25.10;;;5.10;84.90;;;;;;5095208;28;20214;-76
2021/03/25 03:40:39;;;;;;;29.02;26.83;;;5.00;84.80;;;;;;5095036;28;20223;-77
2021/03/25 03:43:09;;;;;;;29.17;26.77;;;5.00;84.40;;;;;;5094891;28;20205;-76
2021/03/25 03:45:39;;;;;;;29.75;27.25;;;4.90;84.90;;;;;;5094838;28;20206;-76
2021/03/25 03:48:11;;;;;;;28.08;25.98;;;4.90;85.40;;;;;;5094904;28;20679;-76
2021/03/25 03:50:44;;;;;;;27.48;25.38;;;4.90;86.70;;;;;;5094877;28;20700;-76
2021/03/25 03:53:10;;;;;;;67.60;31.02;;;4.80;85.90;;;;;;5094939;28;20569;-76
2021/03/25 03:55:37;;;;;;;27.45;25.25;;;4.80;87.80;;;;;;5094832;28;20739;-76
2021/03/25 03:58:11;;;;;;;26.35;24.30;;;4.80;88.20;;;;;;5094398;28;20605;-77
2021/03/25 04:00:43;;;;;;;29.63;27.60;;;4.80;89.70;;;;;;5094625;28;20666;-76
2021/03/25 04:03:16;;;;;;;28.73;26.55;;;4.90;88.00;;;;;;5094416;28;20677;-76
2021/03/25 04:05:47;;;;;;;27.58;25.40;;;4.90;86.30;;;;;;5094471;28;20206;-76
2021/03/25 04:08:21;;;;;;;27.70;25.48;;;4.80;86.00;;;;;;5094597;28;20199;-77
2021/03/25 04:10:54;;;;;;;28.48;26.38;;;4.80;85.90;;;;;;5094297;28;20212;-76
2021/03/25 04:13:27;;;;;;;27.42;25.42;;;4.80;85.80;;;;;;5094806;28;20201;-77
2021/03/25 04:15:54;;;;;;;30.88;28.23;;;4.80;86.80;;;;;;5094279;28;20196;-76
2021/03/25 04:18:27;;;;;;;30.92;28.42;;;4.90;86.10;;;;;;5094429;28;20195;-76
2021/03/25 04:20:57;;;;;;;27.02;24.83;;;4.90;85.70;;;;;;5094288;28;20576;-76
2021/03/25 04:23:25;;;;;;;28.58;26.63;;;4.90;85.70;;;;;;5094226;28;20195;-76
2021/03/25 04:26:01;;;;;;;26.85;24.85;;;4.80;86.70;;;;;;5094098;28;20728;-76
2021/03/25 04:28:32;;;;;;;31.73;29.33;;;4.90;86.80;;;;;;5094172;28;20202;-76
2021/03/25 04:30:58;;;;;;;29.38;27.30;;;5.00;85.20;;;;;;5094225;28;20287;-77
2021/03/25 04:33:29;;;;;;;29.27;27.10;;;4.90;85.20;;;;;;5093980;28;20195;-76
2021/03/25 04:35:57;;;;;;;28.30;26.35;;;4.90;84.90;;;;;;5094022;28;20210;-76
2021/03/25 04:38:26;;;;;;;31.40;29.23;;;4.80;85.00;;;;;;5093848;28;20727;-77
2021/03/25 04:40:55;;;;;;;31.50;29.00;;;4.80;85.60;;;;;;5093813;28;20219;-76
2021/03/25 04:43:23;;;;;;;30.23;27.95;;;4.80;86.90;;;;;;5093791;28;20563;-76
2021/03/25 04:45:56;;;;;;;30.55;28.00;;;4.90;85.20;;;;;;5093785;28;20195;-76
2021/03/25 04:48:26;;;;;;;28.52;26.25;;;4.90;84.20;;;;;;5093861;28;20195;-77
2021/03/25 04:51:01;;;;;;;27.95;25.77;;;4.80;85.20;;;;;;5093822;28;20685;-76
2021/03/25 04:53:30;;;;;;;29.50;27.20;;;4.80;85.20;;;;;;5093844;28;20205;-76
2021/03/25 04:55:57;;;;;;;28.00;25.92;;;4.90;84.30;;;;;;5093348;28;20199;-76
2021/03/25 04:58:29;;;;;;;29.80;27.63;;;4.90;84.00;;;;;;5093591;28;20237;-76
2021/03/25 05:01:02;;;;;;;28.60;26.35;;;4.80;83.90;;;;;;5093603;28;20688;-76
2021/03/25 05:03:29;;;;;;;31.20;29.00;;;4.90;83.70;;;;;;5093256;28;20287;-76
2021/03/25 05:05:57;;;;;;;29.02;26.63;;;4.80;85.00;;;;;;5093195;28;20282;-76
2021/03/25 05:08:27;;;;;;;29.08;26.77;;;4.90;84.50;;;;;;5093413;28;20191;-76
2021/03/25 05:10:59;;;;;;;29.10;26.70;;;4.80;84.20;;;;;;5093542;28;20215;-76
2021/03/25 05:13:28;;;;;;;27.67;25.67;;;4.90;84.30;;;;;;5093307;28;20726;-77
2021/03/25 05:16:21;;;;;;;29.35;27.23;;;4.90;83.90;;;;;;5092898;28;20195;-76
2021/03/25 05:19:01;;;;;;;28.95;26.90;;;4.80;84.00;;;;;;5093034;28;20195;-77
2021/03/25 05:21:41;;;;;;;26.50;24.58;;;4.80;83.80;;;;;;5092758;28;20222;-77
2021/03/25 05:24:21;;;;;;;28.35;26.17;;;4.80;83.70;;;;;;5093034;28;20199;-77
2021/03/25 05:26:53;;;;;;;30.23;27.83;;;4.70;84.40;;;;;;5092729;28;20195;-77
2021/03/25 05:29:19;;;;;;;30.10;27.80;;;4.80;84.50;;;;;;5092827;28;20696;-77
2021/03/25 05:31:47;;;;;;;27.20;25.20;;;4.90;84.30;;;;;;5092977;28;20607;-77
2021/03/25 05:34:15;;;;;;;28.35;25.95;;;4.80;87.90;;;;;;5092910;28;20202;-77
2021/03/25 05:36:42;;;;;;;27.13;25.20;;;4.80;88.20;;;;;;5092554;28;20664;-77
2021/03/25 05:39:09;;;;;;;27.90;25.70;;;4.90;86.30;;;;;;5092765;28;20215;-76
2021/03/25 05:41:41;;;;;;;26.55;24.65;;;4.90;86.70;;;;;;5092792;28;20215;-76
2021/03/25 05:44:35;;;;;;;28.67;26.20;;;5.00;85.70;;;;;;5092738;28;20207;-76
2021/03/25 05:47:30;;;;;;;27.63;25.63;;;5.00;84.30;;;;;;5092564;28;20255;-76
2021/03/25 05:50:10;;;;;;;28.60;26.50;;;5.00;83.70;;;;;;5092551;28;20211;-76
2021/03/25 05:52:46;;;;;;;29.00;26.90;;;5.00;83.40;;;;;;5092647;28;20199;-76
2021/03/25 05:55:36;;;;;;;29.40;27.20;;;5.20;82.70;;;;;;5092559;28;20228;-76
2021/03/25 05:58:12;;;;;;;27.58;25.33;;;5.20;83.90;;;;;;5092354;28;20196;-76
2021/03/25 06:00:46;;;;;;;27.20;25.20;;;5.30;82.80;;;;;;5092566;28;20309;-76
2021/03/25 06:03:16;;;;;;;28.33;26.45;;;5.30;85.00;;;;;;5092612;28;20193;-76
2021/03/25 06:05:43;;;;;;;28.17;26.00;;;5.30;85.00;;;;;;5092679;28;20253;-76
2021/03/25 06:08:41;;;;;;;28.67;26.77;;;5.40;85.40;;;;;;5092469;28;20614;-77
2021/03/25 06:11:28;;;;;;;28.40;26.50;;;5.50;83.00;;;;;;5092636;28;20195;-76
2021/03/25 06:14:09;;;;;;;27.33;25.42;;;5.60;81.50;;;;;;5092589;28;20256;-76
2021/03/25 06:17:10;;;;;;;28.88;26.88;;;5.70;81.00;;;;;;5092438;28;20285;-77
2021/03/25 06:20:09;;;;;;;30.38;28.10;;;5.80;80.60;;;;;;5089273;28;20693;-76
2021/03/25 06:22:45;;;;;;;28.42;26.33;;;6.00;79.40;;;;;;5066319;28;20207;-77
2021/03/25 06:25:47;;;;;;;29.40;27.20;;;6.10;80.80;;;;;;5092651;28;20260;-77
2021/03/25 06:28:19;;;;;;;29.05;26.90;;;6.30;80.10;;;;;;5076846;28;20230;-77
2021/03/25 06:30:54;;;;;;;27.23;25.33;;;6.40;80.80;;;;;;5092479;28;20298;-76
2021/03/25 06:33:25;;;;;;;30.52;28.20;;;6.40;81.40;;;;;;5092357;28;20561;-76
2021/03/25 06:35:54;;;;;;;28.13;26.23;;;6.50;79.60;;;;;;5095720;28;20203;-77
2021/03/25 06:38:25;;;;;;;28.50;26.67;;;6.70;78.20;;;;;;5096391;28;20256;-77
2021/03/25 06:40:58;;;;;;;30.25;28.05;;;6.90;77.20;;;;;;5096124;28;20229;-77
2021/03/25 06:43:31;;;;;;;30.08;28.02;;;7.00;76.20;;;;;;5096286;28;20293;-77
2021/03/25 06:46:03;;;;;;;32.60;30.30;;;7.10;76.90;;;;;;5096007;28;20740;-77
2021/03/25 06:48:38;;;;;;;30.98;28.88;;;7.20;78.70;;;;;;5096162;28;20673;-77
2021/03/25 06:51:18;;;;;;;29.85;27.73;;;7.40;79.40;;;;;;5095884;28;20202;-77
2021/03/25 06:53:45;;;;;;;31.92;29.63;;;7.50;81.00;;;;;;5095979;28;20203;-77
2021/03/25 06:56:31;;;;;;;29.85;27.63;;;7.60;79.80;;;;;;5095324;28;20657;-77
2021/03/25 06:59:01;;;;;;;31.13;28.83;;;7.70;77.30;;;;;;5095846;28;20215;-77
2021/03/25 07:01:32;;;;;;;32.13;29.95;;;7.80;75.50;;;;;;5095475;28;20227;-77
2021/03/25 07:04:01;;;;;;;30.38;28.27;;;7.90;73.90;;;;;;5095799;28;20203;-77
2021/03/25 07:06:30;;;;;;;33.55;31.17;;;8.00;73.70;;;;;;5095771;28;20691;-77
2021/03/25 07:08:57;;;;;;;30.35;28.35;;;8.20;72.90;;;;;;5095566;28;20215;-77
2021/03/25 07:11:28;;;;;;;31.95;29.90;;;8.30;71.90;;;;;;5095977;28;20664;-77
2021/03/25 07:14:00;;;;;;;32.25;29.90;;;8.50;73.00;;;;;;5095994;28;20744;-77
2021/03/25 07:16:27;;;;;;;32.03;29.83;;;8.50;73.50;;;;;;5095558;28;20610;-77
2021/03/25 07:19:00;;;;;;;33.45;31.17;;;8.60;72.50;;;;;;5095669;28;20219;-77
2021/03/25 07:21:32;;;;;;;32.28;29.80;;;8.80;72.60;;;;;;5095502;28;20219;-77
2021/03/25 07:24:01;;;;;;;30.65;28.45;;;8.90;72.40;;;;;;5095524;28;20211;-77
2021/03/25 07:26:33;;;;;;;32.95;30.60;;;9.10;75.60;;;;;;5095146;28;20192;-77
2021/03/25 07:29:22;;;;;;;30.85;28.45;;;9.10;70.60;;;;;;5095368;28;20272;-77
2021/03/25 07:32:13;;;;;;;31.70;29.38;;;9.30;69.60;;;;;;5095293;28;20197;-77
2021/03/25 07:34:43;;;;;;;30.08;27.95;;;9.40;68.10;;;;;;5095201;28;20199;-77
2021/03/25 07:37:11;;;;;;;30.52;28.23;;;9.60;67.50;;;;;;5094963;28;20199;-77
2021/03/25 07:39:44;;;;;;;29.70;27.40;;;9.70;67.00;;;;;;5094970;28;20593;-77
2021/03/25 07:42:11;;;;;;;30.25;28.10;;;9.80;66.50;;;;;;5095017;28;20437;-77
2021/03/25 07:44:40;;;;;;;34.42;30.20;;;9.90;65.80;;;;;;5094513;28;20214;-77
2021/03/25 07:47:24;;;;;;;33.00;30.50;;;9.90;65.60;;;;;;5094681;28;20202;-77
2021/03/25 07:49:51;;;;;;;33.43;31.27;;;10.10;66.90;;;;;;5094817;28;20593;-77
2021/03/25 07:52:29;;;;;;;30.37;27.60;;;10.30;65.90;;;;;;5094886;28;20542;-77
2021/03/25 07:55:11;;;;;;;33.63;30.67;;;10.50;65.30;;;;;;5094834;28;20827;-77
2021/03/25 07:57:44;;;;;;;35.17;32.50;;;10.80;64.50;;;;;;5094265;28;20548;-77
2021/03/25 08:00:17;;;;;;;33.47;30.50;;;10.90;64.40;;;;;;5094688;28;20578;-77
2021/03/25 08:02:44;;;;;;;34.80;31.97;;;11.00;65.30;;;;;;5094404;28;21007;-77
2021/03/25 08:05:27;;;;;;;34.37;31.77;;;11.30;62.70;;;;;;5094770;28;20487;-77
2021/03/25 08:07:57;;;;;;;36.07;33.27;;;11.20;64.60;;;;;;5094681;28;20483;-77
2021/03/25 08:10:35;;;;;;;35.57;32.40;;;11.30;62.90;;;;;;5094462;28;20466;-77
2021/03/25 08:13:15;;;;;;;37.70;34.30;;;11.50;62.50;;;;;;5094317;28;20487;-77
2021/03/25 08:15:44;;;;;;;35.93;32.93;;;11.50;62.20;;;;;;5094397;28;20459;-77
2021/03/25 08:18:25;;;;;;;37.90;34.73;;;11.60;62.10;;;;;;5094584;28;20560;-77
2021/03/25 08:20:59;;;;;;;35.47;32.70;;;11.80;61.70;;;;;;5094260;28;20892;-77
2021/03/25 08:23:57;;;;;;;36.30;33.20;;;11.80;61.40;;;;;;5094331;28;20548;-77
2021/03/25 08:26:31;;;;;;;37.00;34.03;;;11.90;61.10;;;;;;5068044;28;20449;-77
2021/03/25 08:29:08;;;;;;;36.70;33.20;;;12.10;60.20;;;;;;5094062;28;20478;-77
2021/03/25 08:31:39;;;;;;;38.17;34.87;;;12.00;60.40;;;;;;5094273;28;20488;-77
2021/03/25 08:34:24;;;;;;;39.47;35.97;;;12.20;60.00;;;;;;5094118;28;20536;-77
2021/03/25 08:37:03;;;;;;;37.13;33.37;;;12.20;60.00;;;;;;5094015;28;20452;-77
2021/03/25 08:39:36;;;;;;;36.87;34.17;;;12.20;60.10;;;;;;5094093;28;20475;-77
2021/03/25 08:42:11;;;;;;;35.60;32.70;;;12.30;59.90;;;;;;5094222;28;20473;-77
2021/03/25 08:44:42;;;;;;;36.63;33.83;;;12.50;59.40;;;;;;5094023;28;20464;-77
2021/03/25 08:47:13;;;;;;;35.57;32.87;;;12.70;58.80;;;;;;5093608;28;20548;-77
2021/03/25 08:49:45;;;;;;;36.97;33.80;;;12.70;58.40;;;;;;5093698;28;20480;-77
2021/03/25 08:52:17;;;;;;;36.13;33.00;;;12.80;58.40;;;;;;5093919;28;20456;-77
2021/03/25 08:54:47;;;;;;;36.90;33.97;;;12.70;58.60;;;;;;5093865;28;20472;-77
2021/03/25 08:57:18;;;;;;;36.20;33.37;;;12.90;58.10;;;;;;5092481;28;20958;-77
2021/03/25 08:59:53;;;;;;;35.77;32.87;;;13.00;57.80;;;;;;5093576;28;20481;-77
2021/03/25 09:02:26;;;;;;;35.63;32.30;;;13.10;57.30;;;;;;5093468;28;20445;-77
2021/03/25 09:04:57;;;;;;;36.20;33.20;;;13.10;57.40;;;;;;5093732;28;20449;-77
2021/03/25 09:07:25;;;;;;;35.13;32.50;;;13.10;57.50;;;;;;5093498;28;20449;-77
2021/03/25 09:09:55;;;;;;;36.90;33.60;;;13.20;58.00;;;;;;5093560;28;20469;-77
2021/03/25 09:12:24;;;;;;;37.00;33.77;;;13.40;57.10;;;;;;5093541;28;20445;-77
2021/03/25 09:14:51;;;;;;;38.53;34.70;;;13.30;57.20;;;;;;5093538;28;21025;-77
2021/03/25 09:17:21;;;;;;;38.50;35.00;;;13.40;57.20;;;;;;5093347;28;20455;-77
2021/03/25 09:19:50;;;;;;;37.20;33.83;;;13.50;56.90;;;;;;5094611;28;20471;-78
2021/03/25 09:22:38;;;;;;;36.70;33.33;;;13.70;56.50;;;;;;5095214;28;20477;-78
2021/03/25 09:25:37;;;;;;;38.17;34.33;;;13.80;56.20;;;;;;5095071;28;20451;-77
2021/03/25 09:28:07;;;;;;;36.83;33.47;;;13.90;56.30;;;;;;5095785;28;20445;-77
2021/03/25 09:30:38;;;;;;;35.80;32.93;;;13.80;56.40;;;;;;5095560;28;20465;-77
2021/03/25 09:33:40;;;;;;;37.63;34.40;;;13.70;56.50;;;;;;5095534;28;20449;-77
2021/03/25 09:36:50;;;;;;;36.33;33.17;;;13.80;56.50;;;;;;5094395;28;20452;-77
2021/03/25 09:39:33;;;;;;;37.93;34.57;;;14.00;56.30;;;;;;5094322;28;20473;-77
2021/03/25 09:42:05;;;;;;;36.83;33.67;;;14.20;56.10;;;;;;5096996;28;20591;-78
2021/03/25 09:44:39;;;;;;;38.10;34.40;;;14.40;55.10;;;;;;5096027;28;20456;-77
2021/03/25 09:47:16;;;;;;;36.37;33.37;;;14.30;55.40;;;;;;5096427;28;20531;-77
2021/03/25 09:49:44;;;;;;;35.47;32.50;;;14.30;55.70;;;;;;5096846;28;20496;-77
2021/03/25 09:52:35;;;;;;;36.03;33.20;;;14.40;55.30;;;;;;5096118;28;20444;-78
2021/03/25 09:55:25;;;;;;;36.53;33.73;;;14.30;55.70;;;;;;5094723;28;20464;-77
2021/03/25 09:57:53;;;;;;;35.77;32.00;;;14.40;55.50;;;;;;5093965;28;20464;-77
2021/03/25 10:00:52;;;;;;;36.77;33.80;;;14.50;55.40;;;;;;5094168;28;21041;-77
2021/03/25 10:04:00;;;;;;;39.30;36.03;;;14.60;55.10;;;;;;5092584;28;20461;-77
2021/03/25 10:06:54;;;;;;;35.80;32.60;;;14.70;55.00;;;;;;5092524;28;20444;-77
2021/03/25 10:09:52;;;;;;;33.80;31.20;;;14.80;54.80;;;;;;5095495;28;20492;-77
2021/03/25 10:13:01;;;;;;;34.33;31.73;;;14.90;54.90;;;;;;5097085;28;20437;-78
2021/03/25 10:15:55;;;;;;;37.10;33.70;;;15.00;54.50;;;;;;5097092;28;20455;-80
2021/03/25 10:18:53;;;;;;;34.27;31.47;;;14.90;54.60;;;;;;5096821;28;20457;-78
2021/03/25 10:22:00;;;;;;;33.90;31.50;;;14.90;54.80;;;;;;5096665;28;20485;-78
2021/03/25 10:24:41;;;;;;;32.53;29.93;;;15.10;54.20;;;;;;5096710;28;20485;-78
2021/03/25 10:27:21;;;;;;;33.90;31.40;;;15.00;53.50;;;;;;5096463;28;20877;-77
2021/03/25 10:29:49;;;;;;;33.03;30.63;;;15.10;53.10;;;;;;5096555;28;20512;-77
2021/03/25 10:32:26;;;;;;;32.90;30.50;;;15.20;52.70;;;;;;5096419;28;20456;-77
2021/03/25 10:34:57;;;;;;;35.20;32.10;;;15.30;51.40;;;;;;5096252;28;20481;-78
2021/03/25 10:37:31;;;;;;;34.80;32.13;;;15.40;50.90;;;;;;5096074;28;20487;-77
2021/03/25 10:40:08;;;;;;;34.20;31.33;;;15.30;51.10;;;;;;5096410;28;20506;-77
2021/03/25 10:42:37;;;;;;;33.80;31.30;;;15.30;51.30;;;;;;5096362;28;20453;-77
2021/03/25 10:45:29;;;;;;;32.37;30.23;;;15.40;50.90;;;;;;5096117;28;20939;-77
2021/03/25 10:47:59;;;;;;;34.37;31.43;;;15.40;51.00;;;;;;5096279;28;20449;-78
2021/03/25 10:50:32;;;;;;;33.60;31.30;;;15.30;51.20;;;;;;5096031;28;20464;-77
2021/03/25 10:53:03;;;;;;;32.43;30.10;;;15.30;51.10;;;;;;5096040;28;20449;-78
2021/03/25 10:55:38;;;;;;;33.00;30.60;;;15.30;51.50;;;;;;5095811;28;20456;-78
2021/03/25 10:58:06;;;;;;;31.80;29.60;;;15.40;50.80;;;;;;5095527;28;20467;-78
2021/03/25 11:00:35;;;;;;;31.83;29.63;;;15.60;50.60;;;;;;5099818;28;20487;-78
2021/03/25 11:03:17;;;;;;;34.17;31.53;;;15.90;48.90;;;;;;5099129;28;20453;-77
2021/03/25 11:05:52;;;;;;;33.37;30.87;;;16.00;49.40;;;;;;5098807;28;20509;-77
2021/03/25 11:08:30;;;;;;;33.27;30.70;;;15.90;48.50;;;;;;5099329;28;20452;-78
2021/03/25 11:11:00;;;;;;;31.87;29.57;;;15.90;48.70;;;;;;5099105;28;20453;-77
2021/03/25 11:13:27;;;;;;;32.47;30.13;;;16.00;47.70;;;;;;5098786;28;20521;-78
2021/03/25 11:15:58;;;;;;;31.63;29.27;;;16.10;47.80;;;;;;5099401;28;20537;-78
2021/03/25 11:18:29;;;;;;;30.40;28.37;;;15.90;47.10;;;;;;5098118;28;20463;-77
2021/03/25 11:20:57;;;;;;;30.07;28.10;;;15.90;47.20;;;;;;5098332;28;20476;-78
2021/03/25 11:23:27;;;;;;;31.43;28.93;;;15.90;47.80;;;;;;5099683;28;20459;-78
2021/03/25 11:25:55;;;;;;;31.50;28.63;;;16.10;47.30;;;;;;5099999;28;20456;-78
2021/03/25 11:28:23;;;;;;;28.77;26.87;;;16.30;46.80;;;;;;5100192;28;20982;-78
2021/03/25 11:30:51;;;;;;;29.57;27.47;;;16.30;44.40;;;;;;5100331;28;20458;-78
2021/03/25 11:33:38;;;;;;;30.90;28.60;;;16.50;44.50;;;;;;5099952;28;20457;-78
2021/03/25 11:36:06;;;;;;;30.77;28.70;;;16.70;45.00;;;;;;5099695;28;20449;-78
2021/03/25 11:38:37;;;;;;;29.93;27.63;;;17.00;45.70;;;;;;5098461;28;20946;-77
2021/03/25 11:41:06;;;;;;;32.03;29.70;;;16.90;45.10;;;;;;5099101;28;20834;-78
2021/03/25 11:43:47;;;;;;;30.63;28.43;;;17.10;45.60;;;;;;5098385;28;20540;-78
2021/03/25 11:46:29;;;;;;;30.67;28.50;;;17.30;45.10;;;;;;5099380;28;20815;-77
2021/03/25 11:49:01;;;;;;;30.50;28.17;;;17.50;44.70;;;;;;5097223;28;20465;-78
2021/03/25 11:51:28;;;;;;;30.47;28.17;;;17.60;44.40;;;;;;5099425;28;20445;-78
2021/03/25 11:53:56;;;;;;;30.20;28.20;;;17.70;43.90;;;;;;5098360;28;20536;-78
2021/03/25 11:56:29;;;;;;;32.10;29.80;;;17.80;44.00;;;;;;5099070;28;20463;-78
2021/03/25 11:59:03;;;;;;;30.30;28.07;;;18.00;43.90;;;;;;5100062;28;20477;-78
2021/03/25 12:01:30;;;;;;;32.47;30.13;;;18.10;43.70;;;;;;5099393;28;20568;-77
2021/03/25 12:04:03;;;;;;;32.37;29.97;;;18.20;43.40;;;;;;5099162;28;21012;-78
2021/03/25 12:06:31;;;;;;;31.37;29.17;;;18.10;43.50;;;;;;5098942;28;20445;-78
2021/03/25 12:09:17;;;;;;;32.13;29.87;;;18.10;44.00;;;;;;5099233;28;20959;-78
2021/03/25 12:11:45;;;;;;;32.17;30.07;;;18.20;44.20;;;;;;5097413;28;20449;-78
2021/03/25 12:14:13;;;;;;;31.73;29.43;;;18.40;43.80;;;;;;5095253;28;20452;-78
2021/03/25 12:16:40;;;;;;;32.00;29.80;;;18.30;44.10;;;;;;5094576;28;20930;-78
2021/03/25 12:19:08;;;;;;;33.20;30.60;;;18.50;43.90;;;;;;5095034;28;21050;-78
2021/03/25 12:21:36;;;;;;;33.30;30.80;;;18.60;43.70;;;;;;5094950;28;20998;-78
2021/03/25 12:24:04;;;;;;;32.97;30.30;;;18.70;43.50;;;;;;5094792;28;20449;-78
2021/03/25 12:26:31;;;;;;;33.60;31.20;;;18.50;43.80;;;;;;5094872;28;20939;-77
2021/03/25 12:29:02;;;;;;;32.87;30.40;;;18.40;44.30;;;;;;5095343;28;20998;-78
2021/03/25 12:31:34;;;;;;;33.57;30.47;;;18.50;44.50;;;;;;5094349;28;20946;-78
2021/03/25 12:34:01;;;;;;;33.73;31.20;;;18.60;44.30;;;;;;5094181;28;20460;-78
2021/03/25 12:36:28;;;;;;;34.63;31.57;;;18.60;44.30;;;;;;5094057;28;20453;-78
2021/03/25 12:38:54;;;;;;;34.10;31.50;;;18.60;44.50;;;;;;5094350;28;20526;-78
2021/03/25 12:41:27;;;;;;;31.87;29.73;;;18.80;44.20;;;;;;5093936;28;21003;-78
2021/03/25 12:43:54;;;;;;;34.77;31.87;;;18.90;44.30;;;;;;5093681;28;20465;-78
2021/03/25 12:46:20;;;;;;;33.90;31.00;;;19.00;44.10;;;;;;5093692;28;20449;-78
2021/03/25 12:48:47;;;;;;;36.23;33.47;;;19.10;44.40;;;;;;5094080;28;20490;-78
2021/03/25 12:51:14;;;;;;;35.30;32.50;;;18.90;45.10;;;;;;5093940;28;20545;-78
2021/03/25 12:53:42;;;;;;;33.63;30.93;;;18.90;45.20;;;;;;5093836;28;20953;-78
2021/03/25 12:56:14;;;;;;;35.07;32.20;;;18.80;45.10;;;;;;5093324;28;20536;-78
2021/03/25 12:58:40;;;;;;;35.50;32.90;;;18.60;45.50;;;;;;5093733;28;20507;-78
2021/03/25 13:01:10;;;;;;;34.10;31.50;;;18.30;46.00;;;;;;5093594;28;20481;-78
2021/03/25 13:03:37;;;;;;;35.73;33.13;;;18.20;46.20;;;;;;5093470;28;20536;-78
2021/03/25 13:06:06;;;;;;;33.53;31.03;;;18.30;46.30;;;;;;5093688;28;20452;-78